sensor_id;sensor_type;location;lat;lon;timestamp;P1;durP1;ratioP1;P2;durP2;ratioP2
69594;SDS011;56800;52.142;5.364;2022-10-20T00:01:18;6.55;;;4.13;;
69594;SDS011;56800;52.142;5.364;2022-10-20T00:03:47;11.35;;;3.90;;
69594;SDS011;56800;52.142;5.364;2022-10-20T00:06:18;14.43;;;3.95;;
69594;SDS011;56800;52.142;5.364;2022-10-20T00:08:56;10.67;;;4.43;;
69594;SDS011;56800;52.142;5.364;2022-10-20T00:11:24;14.98;;;3.50;;
69594;SDS011;56800;52.142;5.364;2022-10-20T00:13:52;8.35;;;4.40;;
69594;SDS011;56800;52.142;5.364;2022-10-20T00:16:20;8.18;;;3.70;;
69594;SDS011;56800;52.142;5.364;2022-10-20T00:18:48;10.13;;;4.20;;
69594;SDS011;56800;52.142;5.364;2022-10-20T00:21:15;8.70;;;3.87;;
69594;SDS011;56800;52.142;5.364;2022-10-20T00:23:47;12.98;;;4.50;;
69594;SDS011;56800;52.142;5.364;2022-10-20T00:26:15;12.00;;;4.03;;
69594;SDS011;56800;52.142;5.364;2022-10-20T00:28:43;9.15;;;4.50;;
69594;SDS011;56800;52.142;5.364;2022-10-20T00:31:11;14.20;;;4.00;;
69594;SDS011;56800;52.142;5.364;2022-10-20T00:33:38;8.07;;;4.07;;
69594;SDS011;56800;52.142;5.364;2022-10-20T00:36:06;10.52;;;4.20;;
69594;SDS011;56800;52.142;5.364;2022-10-20T00:38:34;10.93;;;3.92;;
69594;SDS011;56800;52.142;5.364;2022-10-20T00:41:02;10.10;;;4.78;;
69594;SDS011;56800;52.142;5.364;2022-10-20T00:46:16;12.70;;;4.40;;
69594;SDS011;56800;52.142;5.364;2022-10-20T00:48:53;7.53;;;4.60;;
69594;SDS011;56800;52.142;5.364;2022-10-20T00:51:25;11.30;;;4.65;;
69594;SDS011;56800;52.142;5.364;2022-10-20T00:54:05;12.52;;;4.93;;
69594;SDS011;56800;52.142;5.364;2022-10-20T00:56:35;14.52;;;4.63;;
69594;SDS011;56800;52.142;5.364;2022-10-20T00:59:04;13.17;;;5.20;;
69594;SDS011;56800;52.142;5.364;2022-10-20T01:01:31;14.32;;;4.70;;
69594;SDS011;56800;52.142;5.364;2022-10-20T01:03:58;16.58;;;5.18;;
69594;SDS011;56800;52.142;5.364;2022-10-20T01:06:26;11.65;;;4.70;;
69594;SDS011;56800;52.142;5.364;2022-10-20T01:08:53;11.93;;;4.40;;
69594;SDS011;56800;52.142;5.364;2022-10-20T01:14:08;22.75;;;4.50;;
69594;SDS011;56800;52.142;5.364;2022-10-20T01:22:07;12.27;;;4.40;;
69594;SDS011;56800;52.142;5.364;2022-10-20T01:25:05;10.63;;;4.87;;
69594;SDS011;56800;52.142;5.364;2022-10-20T01:28:15;12.95;;;4.97;;
69594;SDS011;56800;52.142;5.364;2022-10-20T01:30:46;16.17;;;4.50;;
69594;SDS011;56800;52.142;5.364;2022-10-20T01:33:40;13.05;;;5.10;;
69594;SDS011;56800;52.142;5.364;2022-10-20T01:36:17;10.82;;;4.68;;
69594;SDS011;56800;52.142;5.364;2022-10-20T01:39:07;8.40;;;4.60;;
69594;SDS011;56800;52.142;5.364;2022-10-20T01:41:45;12.48;;;4.60;;
69594;SDS011;56800;52.142;5.364;2022-10-20T01:44:18;12.15;;;4.90;;
69594;SDS011;56800;52.142;5.364;2022-10-20T01:46:47;8.27;;;4.78;;
69594;SDS011;56800;52.142;5.364;2022-10-20T01:49:14;12.20;;;4.90;;
69594;SDS011;56800;52.142;5.364;2022-10-20T01:51:41;7.53;;;5.00;;
69594;SDS011;56800;52.142;5.364;2022-10-20T01:54:20;7.90;;;5.10;;
69594;SDS011;56800;52.142;5.364;2022-10-20T01:57:02;14.10;;;5.63;;
69594;SDS011;56800;52.142;5.364;2022-10-20T02:00:04;12.93;;;6.03;;
69594;SDS011;56800;52.142;5.364;2022-10-20T02:08:10;13.77;;;4.95;;
69594;SDS011;56800;52.142;5.364;2022-10-20T02:10:50;8.55;;;5.38;;
69594;SDS011;56800;52.142;5.364;2022-10-20T02:13:20;14.98;;;5.60;;
69594;SDS011;56800;52.142;5.364;2022-10-20T02:15:48;12.55;;;5.80;;
69594;SDS011;56800;52.142;5.364;2022-10-20T02:18:19;14.87;;;5.90;;
69594;SDS011;56800;52.142;5.364;2022-10-20T02:20:52;15.18;;;6.78;;
69594;SDS011;56800;52.142;5.364;2022-10-20T02:23:21;10.23;;;5.57;;
69594;SDS011;56800;52.142;5.364;2022-10-20T02:25:49;11.88;;;5.63;;
69594;SDS011;56800;52.142;5.364;2022-10-20T02:28:19;13.35;;;6.10;;
69594;SDS011;56800;52.142;5.364;2022-10-20T02:30:46;12.90;;;5.83;;
69594;SDS011;56800;52.142;5.364;2022-10-20T02:33:14;15.13;;;6.03;;
69594;SDS011;56800;52.142;5.364;2022-10-20T02:35:47;12.93;;;5.93;;
69594;SDS011;56800;52.142;5.364;2022-10-20T02:38:16;16.38;;;5.95;;
69594;SDS011;56800;52.142;5.364;2022-10-20T02:40:43;15.68;;;6.03;;
69594;SDS011;56800;52.142;5.364;2022-10-20T02:43:10;9.33;;;6.17;;
69594;SDS011;56800;52.142;5.364;2022-10-20T02:45:36;14.68;;;5.93;;
69594;SDS011;56800;52.142;5.364;2022-10-20T02:48:03;16.52;;;6.55;;
69594;SDS011;56800;52.142;5.364;2022-10-20T02:50:33;12.80;;;6.05;;
69594;SDS011;56800;52.142;5.364;2022-10-20T02:53:00;17.67;;;6.00;;
69594;SDS011;56800;52.142;5.364;2022-10-20T02:55:26;14.83;;;6.10;;
69594;SDS011;56800;52.142;5.364;2022-10-20T02:57:53;10.43;;;6.07;;
69594;SDS011;56800;52.142;5.364;2022-10-20T03:00:20;12.23;;;6.28;;
69594;SDS011;56800;52.142;5.364;2022-10-20T03:02:46;13.80;;;6.45;;
69594;SDS011;56800;52.142;5.364;2022-10-20T03:05:13;15.02;;;6.22;;
69594;SDS011;56800;52.142;5.364;2022-10-20T03:07:40;12.93;;;6.63;;
69594;SDS011;56800;52.142;5.364;2022-10-20T03:10:07;10.45;;;6.57;;
69594;SDS011;56800;52.142;5.364;2022-10-20T03:12:34;11.27;;;6.25;;
69594;SDS011;56800;52.142;5.364;2022-10-20T03:15:00;15.77;;;6.07;;
69594;SDS011;56800;52.142;5.364;2022-10-20T03:17:27;17.00;;;6.55;;
69594;SDS011;56800;52.142;5.364;2022-10-20T03:19:53;14.37;;;6.93;;
69594;SDS011;56800;52.142;5.364;2022-10-20T03:22:20;13.90;;;6.97;;
69594;SDS011;56800;52.142;5.364;2022-10-20T03:24:47;13.32;;;6.80;;
69594;SDS011;56800;52.142;5.364;2022-10-20T03:27:13;12.48;;;6.82;;
69594;SDS011;56800;52.142;5.364;2022-10-20T03:29:40;12.77;;;6.75;;
69594;SDS011;56800;52.142;5.364;2022-10-20T03:32:06;13.00;;;6.87;;
69594;SDS011;56800;52.142;5.364;2022-10-20T03:34:33;13.88;;;6.35;;
69594;SDS011;56800;52.142;5.364;2022-10-20T03:37:00;14.85;;;6.50;;
69594;SDS011;56800;52.142;5.364;2022-10-20T03:39:26;13.70;;;6.55;;
69594;SDS011;56800;52.142;5.364;2022-10-20T03:41:53;11.95;;;6.68;;
69594;SDS011;56800;52.142;5.364;2022-10-20T03:44:22;12.63;;;6.00;;
69594;SDS011;56800;52.142;5.364;2022-10-20T03:46:49;11.02;;;6.47;;
69594;SDS011;56800;52.142;5.364;2022-10-20T03:49:16;12.68;;;7.25;;
69594;SDS011;56800;52.142;5.364;2022-10-20T03:51:42;14.55;;;7.00;;
69594;SDS011;56800;52.142;5.364;2022-10-20T03:54:09;16.48;;;7.15;;
69594;SDS011;56800;52.142;5.364;2022-10-20T03:56:36;12.93;;;7.30;;
69594;SDS011;56800;52.142;5.364;2022-10-20T03:59:02;18.38;;;8.38;;
69594;SDS011;56800;52.142;5.364;2022-10-20T04:01:29;16.92;;;7.18;;
69594;SDS011;56800;52.142;5.364;2022-10-20T04:03:57;15.82;;;6.63;;
69594;SDS011;56800;52.142;5.364;2022-10-20T04:06:24;12.90;;;6.72;;
69594;SDS011;56800;52.142;5.364;2022-10-20T04:08:51;14.90;;;7.07;;
69594;SDS011;56800;52.142;5.364;2022-10-20T04:11:17;17.42;;;7.15;;
69594;SDS011;56800;52.142;5.364;2022-10-20T04:13:44;12.68;;;6.50;;
69594;SDS011;56800;52.142;5.364;2022-10-20T04:16:11;18.60;;;7.65;;
69594;SDS011;56800;52.142;5.364;2022-10-20T04:18:37;13.68;;;6.70;;
69594;SDS011;56800;52.142;5.364;2022-10-20T04:21:04;14.73;;;6.63;;
69594;SDS011;56800;52.142;5.364;2022-10-20T04:23:30;13.80;;;7.05;;
69594;SDS011;56800;52.142;5.364;2022-10-20T04:25:57;13.88;;;6.75;;
69594;SDS011;56800;52.142;5.364;2022-10-20T04:28:24;15.70;;;6.63;;
69594;SDS011;56800;52.142;5.364;2022-10-20T04:30:50;15.48;;;7.32;;
69594;SDS011;56800;52.142;5.364;2022-10-20T04:33:17;15.67;;;6.80;;
69594;SDS011;56800;52.142;5.364;2022-10-20T04:35:43;12.75;;;6.78;;
69594;SDS011;56800;52.142;5.364;2022-10-20T04:38:10;13.43;;;6.93;;
69594;SDS011;56800;52.142;5.364;2022-10-20T04:40:37;13.52;;;7.13;;
69594;SDS011;56800;52.142;5.364;2022-10-20T04:43:03;16.08;;;7.25;;
69594;SDS011;56800;52.142;5.364;2022-10-20T04:45:30;14.07;;;7.77;;
69594;SDS011;56800;52.142;5.364;2022-10-20T04:47:56;13.35;;;7.15;;
69594;SDS011;56800;52.142;5.364;2022-10-20T04:50:23;16.20;;;7.38;;
69594;SDS011;56800;52.142;5.364;2022-10-20T04:52:50;11.68;;;7.22;;
69594;SDS011;56800;52.142;5.364;2022-10-20T04:55:16;24.20;;;7.20;;
69594;SDS011;56800;52.142;5.364;2022-10-20T04:57:43;13.73;;;7.60;;
69594;SDS011;56800;52.142;5.364;2022-10-20T05:00:10;14.48;;;7.32;;
69594;SDS011;56800;52.142;5.364;2022-10-20T05:02:37;16.52;;;7.28;;
69594;SDS011;56800;52.142;5.364;2022-10-20T05:05:03;15.90;;;7.50;;
69594;SDS011;56800;52.142;5.364;2022-10-20T05:07:30;14.60;;;7.25;;
69594;SDS011;56800;52.142;5.364;2022-10-20T05:09:57;12.33;;;7.30;;
69594;SDS011;56800;52.142;5.364;2022-10-20T05:12:24;18.25;;;7.45;;
69594;SDS011;56800;52.142;5.364;2022-10-20T05:14:50;12.20;;;7.50;;
69594;SDS011;56800;52.142;5.364;2022-10-20T05:17:17;15.82;;;8.23;;
69594;SDS011;56800;52.142;5.364;2022-10-20T05:19:43;10.90;;;6.90;;
69594;SDS011;56800;52.142;5.364;2022-10-20T05:22:10;19.00;;;8.03;;
69594;SDS011;56800;52.142;5.364;2022-10-20T05:24:37;12.80;;;7.03;;
69594;SDS011;56800;52.142;5.364;2022-10-20T05:27:04;12.20;;;7.55;;
69594;SDS011;56800;52.142;5.364;2022-10-20T05:29:30;15.75;;;7.47;;
69594;SDS011;56800;52.142;5.364;2022-10-20T05:31:57;20.45;;;7.50;;
69594;SDS011;56800;52.142;5.364;2022-10-20T05:34:23;14.90;;;7.57;;
69594;SDS011;56800;52.142;5.364;2022-10-20T05:36:51;15.18;;;7.63;;
69594;SDS011;56800;52.142;5.364;2022-10-20T05:39:19;16.15;;;7.57;;
69594;SDS011;56800;52.142;5.364;2022-10-20T05:41:45;14.95;;;7.32;;
69594;SDS011;56800;52.142;5.364;2022-10-20T05:44:12;17.00;;;7.65;;
69594;SDS011;56800;52.142;5.364;2022-10-20T05:46:39;17.03;;;7.80;;
69594;SDS011;56800;52.142;5.364;2022-10-20T05:49:11;19.33;;;7.97;;
69594;SDS011;56800;52.142;5.364;2022-10-20T05:51:40;19.13;;;7.97;;
69594;SDS011;56800;52.142;5.364;2022-10-20T05:54:08;14.18;;;8.07;;
69594;SDS011;56800;52.142;5.364;2022-10-20T05:56:36;20.80;;;7.72;;
69594;SDS011;56800;52.142;5.364;2022-10-20T05:59:03;16.60;;;7.70;;
69594;SDS011;56800;52.142;5.364;2022-10-20T06:01:30;15.13;;;7.78;;
69594;SDS011;56800;52.142;5.364;2022-10-20T06:04:06;14.05;;;7.40;;
69594;SDS011;56800;52.142;5.364;2022-10-20T06:06:33;20.90;;;8.40;;
69594;SDS011;56800;52.142;5.364;2022-10-20T06:09:03;20.63;;;8.57;;
69594;SDS011;56800;52.142;5.364;2022-10-20T06:11:32;13.83;;;8.03;;
69594;SDS011;56800;52.142;5.364;2022-10-20T06:14:04;26.17;;;8.20;;
69594;SDS011;56800;52.142;5.364;2022-10-20T06:16:30;15.68;;;7.90;;
69594;SDS011;56800;52.142;5.364;2022-10-20T06:18:57;15.32;;;8.18;;
69594;SDS011;56800;52.142;5.364;2022-10-20T06:21:25;16.38;;;8.48;;
69594;SDS011;56800;52.142;5.364;2022-10-20T06:23:53;22.03;;;8.63;;
69594;SDS011;56800;52.142;5.364;2022-10-20T06:26:21;14.52;;;8.10;;
69594;SDS011;56800;52.142;5.364;2022-10-20T06:28:50;17.92;;;8.25;;
69594;SDS011;56800;52.142;5.364;2022-10-20T06:31:31;16.05;;;8.23;;
69594;SDS011;56800;52.142;5.364;2022-10-20T06:34:00;16.05;;;9.18;;
69594;SDS011;56800;52.142;5.364;2022-10-20T06:36:29;20.57;;;8.27;;
69594;SDS011;56800;52.142;5.364;2022-10-20T06:38:56;20.50;;;8.63;;
69594;SDS011;56800;52.142;5.364;2022-10-20T06:41:24;18.60;;;8.20;;
69594;SDS011;56800;52.142;5.364;2022-10-20T06:43:52;19.90;;;8.93;;
69594;SDS011;56800;52.142;5.364;2022-10-20T06:46:26;19.55;;;9.40;;
69594;SDS011;56800;52.142;5.364;2022-10-20T06:48:54;15.20;;;8.20;;
69594;SDS011;56800;52.142;5.364;2022-10-20T06:51:24;20.25;;;9.68;;
69594;SDS011;56800;52.142;5.364;2022-10-20T06:53:51;16.67;;;8.98;;
69594;SDS011;56800;52.142;5.364;2022-10-20T06:56:22;14.80;;;9.25;;
69594;SDS011;56800;52.142;5.364;2022-10-20T06:58:51;17.25;;;9.50;;
69594;SDS011;56800;52.142;5.364;2022-10-20T07:01:19;22.23;;;9.17;;
69594;SDS011;56800;52.142;5.364;2022-10-20T07:03:48;18.40;;;8.95;;
69594;SDS011;56800;52.142;5.364;2022-10-20T07:06:17;26.10;;;10.32;;
69594;SDS011;56800;52.142;5.364;2022-10-20T07:08:46;17.80;;;9.23;;
69594;SDS011;56800;52.142;5.364;2022-10-20T07:11:14;20.30;;;9.02;;
69594;SDS011;56800;52.142;5.364;2022-10-20T07:13:45;21.47;;;9.10;;
69594;SDS011;56800;52.142;5.364;2022-10-20T07:16:15;15.23;;;8.95;;
69594;SDS011;56800;52.142;5.364;2022-10-20T07:18:43;20.90;;;9.10;;
69594;SDS011;56800;52.142;5.364;2022-10-20T07:21:14;16.90;;;8.82;;
69594;SDS011;56800;52.142;5.364;2022-10-20T07:23:42;16.38;;;8.90;;
69594;SDS011;56800;52.142;5.364;2022-10-20T07:28:45;17.80;;;9.20;;
69594;SDS011;56800;52.142;5.364;2022-10-20T07:31:24;18.08;;;8.48;;
69594;SDS011;56800;52.142;5.364;2022-10-20T07:33:53;17.17;;;8.27;;
69594;SDS011;56800;52.142;5.364;2022-10-20T07:36:39;17.45;;;9.07;;
69594;SDS011;56800;52.142;5.364;2022-10-20T07:39:08;20.03;;;9.10;;
69594;SDS011;56800;52.142;5.364;2022-10-20T07:41:37;13.40;;;8.40;;
69594;SDS011;56800;52.142;5.364;2022-10-20T07:44:05;19.17;;;9.60;;
69594;SDS011;56800;52.142;5.364;2022-10-20T07:46:32;22.27;;;8.90;;
69594;SDS011;56800;52.142;5.364;2022-10-20T07:48:59;13.55;;;8.40;;
69594;SDS011;56800;52.142;5.364;2022-10-20T07:51:46;17.53;;;8.20;;
69594;SDS011;56800;52.142;5.364;2022-10-20T07:54:13;17.25;;;8.60;;
69594;SDS011;56800;52.142;5.364;2022-10-20T07:56:40;18.92;;;8.57;;
69594;SDS011;56800;52.142;5.364;2022-10-20T07:59:08;21.83;;;9.38;;
69594;SDS011;56800;52.142;5.364;2022-10-20T08:01:36;16.35;;;8.48;;
69594;SDS011;56800;52.142;5.364;2022-10-20T08:04:03;22.03;;;8.97;;
69594;SDS011;56800;52.142;5.364;2022-10-20T08:06:30;12.93;;;8.48;;
69594;SDS011;56800;52.142;5.364;2022-10-20T08:08:56;14.18;;;8.60;;
69594;SDS011;56800;52.142;5.364;2022-10-20T08:11:23;15.88;;;9.27;;
69594;SDS011;56800;52.142;5.364;2022-10-20T08:13:51;16.50;;;8.30;;
69594;SDS011;56800;52.142;5.364;2022-10-20T08:16:17;14.50;;;9.17;;
69594;SDS011;56800;52.142;5.364;2022-10-20T08:18:51;17.88;;;8.65;;
69594;SDS011;56800;52.142;5.364;2022-10-20T08:21:33;16.45;;;8.75;;
69594;SDS011;56800;52.142;5.364;2022-10-20T08:23:59;25.35;;;9.25;;
69594;SDS011;56800;52.142;5.364;2022-10-20T08:26:27;17.23;;;8.05;;
69594;SDS011;56800;52.142;5.364;2022-10-20T08:28:54;18.67;;;8.87;;
69594;SDS011;56800;52.142;5.364;2022-10-20T08:31:21;14.00;;;8.75;;
69594;SDS011;56800;52.142;5.364;2022-10-20T08:33:48;18.95;;;8.98;;
69594;SDS011;56800;52.142;5.364;2022-10-20T08:36:18;18.38;;;8.25;;
69594;SDS011;56800;52.142;5.364;2022-10-20T08:38:45;12.90;;;8.60;;
69594;SDS011;56800;52.142;5.364;2022-10-20T08:41:20;21.97;;;8.37;;
69594;SDS011;56800;52.142;5.364;2022-10-20T08:43:51;16.27;;;8.75;;
69594;SDS011;56800;52.142;5.364;2022-10-20T08:46:22;11.63;;;8.30;;
69594;SDS011;56800;52.142;5.364;2022-10-20T08:48:54;14.77;;;8.38;;
69594;SDS011;56800;52.142;5.364;2022-10-20T08:51:22;17.98;;;8.15;;
69594;SDS011;56800;52.142;5.364;2022-10-20T08:53:51;19.50;;;9.10;;
69594;SDS011;56800;52.142;5.364;2022-10-20T08:56:21;13.43;;;8.50;;
69594;SDS011;56800;52.142;5.364;2022-10-20T08:58:50;17.33;;;8.85;;
69594;SDS011;56800;52.142;5.364;2022-10-20T09:01:24;12.38;;;8.18;;
69594;SDS011;56800;52.142;5.364;2022-10-20T09:03:56;17.48;;;8.73;;
69594;SDS011;56800;52.142;5.364;2022-10-20T09:06:27;15.23;;;8.90;;
69594;SDS011;56800;52.142;5.364;2022-10-20T09:08:54;14.45;;;8.73;;
69594;SDS011;56800;52.142;5.364;2022-10-20T09:11:23;14.63;;;8.38;;
69594;SDS011;56800;52.142;5.364;2022-10-20T09:13:53;15.05;;;8.57;;
69594;SDS011;56800;52.142;5.364;2022-10-20T09:16:27;17.40;;;8.95;;
69594;SDS011;56800;52.142;5.364;2022-10-20T09:19:20;15.27;;;9.03;;
69594;SDS011;56800;52.142;5.364;2022-10-20T09:21:48;13.43;;;7.88;;
69594;SDS011;56800;52.142;5.364;2022-10-20T09:24:19;13.25;;;8.07;;
69594;SDS011;56800;52.142;5.364;2022-10-20T09:26:48;17.25;;;8.70;;
69594;SDS011;56800;52.142;5.364;2022-10-20T09:29:35;19.45;;;8.85;;
69594;SDS011;56800;52.142;5.364;2022-10-20T09:32:02;21.37;;;8.93;;
69594;SDS011;56800;52.142;5.364;2022-10-20T09:35:27;19.13;;;8.10;;
69594;SDS011;56800;52.142;5.364;2022-10-20T09:38:02;15.55;;;8.63;;
69594;SDS011;56800;52.142;5.364;2022-10-20T09:40:35;16.88;;;8.75;;
69594;SDS011;56800;52.142;5.364;2022-10-20T09:43:10;19.67;;;8.48;;
69594;SDS011;56800;52.142;5.364;2022-10-20T09:45:55;16.17;;;8.93;;
69594;SDS011;56800;52.142;5.364;2022-10-20T09:48:33;16.88;;;8.40;;
69594;SDS011;56800;52.142;5.364;2022-10-20T09:51:03;16.05;;;8.32;;
69594;SDS011;56800;52.142;5.364;2022-10-20T09:53:38;18.98;;;8.98;;
69594;SDS011;56800;52.142;5.364;2022-10-20T09:56:24;22.33;;;8.73;;
69594;SDS011;56800;52.142;5.364;2022-10-20T09:58:58;14.57;;;9.07;;
69594;SDS011;56800;52.142;5.364;2022-10-20T10:01:27;13.40;;;8.55;;
69594;SDS011;56800;52.142;5.364;2022-10-20T10:03:55;23.17;;;8.90;;
69594;SDS011;56800;52.142;5.364;2022-10-20T10:06:32;18.27;;;9.30;;
69594;SDS011;56800;52.142;5.364;2022-10-20T10:09:23;19.02;;;10.13;;
69594;SDS011;56800;52.142;5.364;2022-10-20T10:11:57;17.53;;;8.70;;
69594;SDS011;56800;52.142;5.364;2022-10-20T10:14:28;13.15;;;8.27;;
69594;SDS011;56800;52.142;5.364;2022-10-20T10:16:58;15.73;;;10.07;;
69594;SDS011;56800;52.142;5.364;2022-10-20T10:19:28;21.65;;;9.43;;
69594;SDS011;56800;52.142;5.364;2022-10-20T10:21:57;15.10;;;8.57;;
69594;SDS011;56800;52.142;5.364;2022-10-20T10:27:29;14.45;;;9.55;;
69594;SDS011;56800;52.142;5.364;2022-10-20T10:32:52;19.58;;;9.98;;
69594;SDS011;56800;52.142;5.364;2022-10-20T10:37:49;18.50;;;9.10;;
69594;SDS011;56800;52.142;5.364;2022-10-20T10:40:31;18.15;;;9.25;;
69594;SDS011;56800;52.142;5.364;2022-10-20T10:45:59;21.25;;;9.45;;
69594;SDS011;56800;52.142;5.364;2022-10-20T10:56:57;17.27;;;10.75;;
69594;SDS011;56800;52.142;5.364;2022-10-20T10:59:39;18.27;;;10.57;;
69594;SDS011;56800;52.142;5.364;2022-10-20T11:05:23;21.53;;;11.53;;
69594;SDS011;56800;52.142;5.364;2022-10-20T11:13:33;25.42;;;11.10;;
69594;SDS011;56800;52.142;5.364;2022-10-20T11:26:46;22.60;;;12.02;;
69594;SDS011;56800;52.142;5.364;2022-10-20T11:34:49;33.10;;;14.75;;
69594;SDS011;56800;52.142;5.364;2022-10-20T11:37:28;22.20;;;12.70;;
69594;SDS011;56800;52.142;5.364;2022-10-20T11:42:49;25.58;;;13.95;;
69594;SDS011;56800;52.142;5.364;2022-10-20T11:45:50;31.10;;;14.17;;
69594;SDS011;56800;52.142;5.364;2022-10-20T11:48:25;25.05;;;14.05;;
69594;SDS011;56800;52.142;5.364;2022-10-20T11:54:09;24.05;;;13.60;;
69594;SDS011;56800;52.142;5.364;2022-10-20T11:59:47;27.87;;;15.00;;
69594;SDS011;56800;52.142;5.364;2022-10-20T12:19:25;32.38;;;16.60;;
69594;SDS011;56800;52.142;5.364;2022-10-20T12:22:35;29.60;;;15.73;;
69594;SDS011;56800;52.142;5.364;2022-10-20T12:27:21;28.90;;;16.43;;
69594;SDS011;56800;52.142;5.364;2022-10-20T12:38:39;29.25;;;16.15;;
69594;SDS011;56800;52.142;5.364;2022-10-20T12:41:08;25.27;;;16.03;;
69594;SDS011;56800;52.142;5.364;2022-10-20T12:43:46;33.15;;;17.05;;
69594;SDS011;56800;52.142;5.364;2022-10-20T12:46:15;34.13;;;16.08;;
69594;SDS011;56800;52.142;5.364;2022-10-20T12:48:47;32.60;;;17.50;;
69594;SDS011;56800;52.142;5.364;2022-10-20T12:51:55;34.70;;;16.42;;
69594;SDS011;56800;52.142;5.364;2022-10-20T12:54:18;30.63;;;16.20;;
69594;SDS011;56800;52.142;5.364;2022-10-20T12:56:58;30.13;;;16.88;;
69594;SDS011;56800;52.142;5.364;2022-10-20T13:16:09;34.72;;;17.23;;
69594;SDS011;56800;52.142;5.364;2022-10-20T13:18:21;31.08;;;16.60;;
69594;SDS011;56800;52.142;5.364;2022-10-20T13:23:43;26.67;;;16.95;;
69594;SDS011;56800;52.142;5.364;2022-10-20T13:26:23;30.95;;;18.20;;
69594;SDS011;56800;52.142;5.364;2022-10-20T13:28:53;35.50;;;18.35;;
69594;SDS011;56800;52.142;5.364;2022-10-20T13:34:25;32.40;;;18.93;;
69594;SDS011;56800;52.142;5.364;2022-10-20T13:40:35;25.02;;;16.88;;
69594;SDS011;56800;52.142;5.364;2022-10-20T13:51:10;31.70;;;17.35;;
69594;SDS011;56800;52.142;5.364;2022-10-20T13:53:46;28.05;;;17.42;;
69594;SDS011;56800;52.142;5.364;2022-10-20T13:58:59;30.17;;;16.85;;
69594;SDS011;56800;52.142;5.364;2022-10-20T14:01:39;37.83;;;16.13;;
69594;SDS011;56800;52.142;5.364;2022-10-20T14:04:22;45.42;;;16.88;;
69594;SDS011;56800;52.142;5.364;2022-10-20T14:09:30;33.03;;;17.90;;
69594;SDS011;56800;52.142;5.364;2022-10-20T14:11:59;31.08;;;17.42;;
69594;SDS011;56800;52.142;5.364;2022-10-20T14:14:31;32.77;;;18.00;;
69594;SDS011;56800;52.142;5.364;2022-10-20T14:16:59;31.88;;;17.30;;
69594;SDS011;56800;52.142;5.364;2022-10-20T14:19:29;27.80;;;17.02;;
69594;SDS011;56800;52.142;5.364;2022-10-20T14:22:08;32.58;;;18.45;;
69594;SDS011;56800;52.142;5.364;2022-10-20T14:24:36;29.67;;;17.80;;
69594;SDS011;56800;52.142;5.364;2022-10-20T14:27:13;30.63;;;17.07;;
69594;SDS011;56800;52.142;5.364;2022-10-20T14:29:44;30.35;;;17.40;;
69594;SDS011;56800;52.142;5.364;2022-10-20T14:32:19;33.28;;;17.30;;
69594;SDS011;56800;52.142;5.364;2022-10-20T14:34:53;29.85;;;18.35;;
69594;SDS011;56800;52.142;5.364;2022-10-20T14:39:58;32.23;;;18.23;;
69594;SDS011;56800;52.142;5.364;2022-10-20T14:42:28;37.75;;;19.05;;
69594;SDS011;56800;52.142;5.364;2022-10-20T14:44:59;36.65;;;18.13;;
69594;SDS011;56800;52.142;5.364;2022-10-20T14:47:33;35.40;;;17.63;;
69594;SDS011;56800;52.142;5.364;2022-10-20T14:50:21;31.92;;;18.75;;
69594;SDS011;56800;52.142;5.364;2022-10-20T14:53:29;31.80;;;17.07;;
69594;SDS011;56800;52.142;5.364;2022-10-20T14:56:19;29.02;;;17.75;;
69594;SDS011;56800;52.142;5.364;2022-10-20T14:58:57;30.55;;;18.50;;
69594;SDS011;56800;52.142;5.364;2022-10-20T15:01:29;34.03;;;17.90;;
69594;SDS011;56800;52.142;5.364;2022-10-20T15:07:34;29.83;;;16.93;;
69594;SDS011;56800;52.142;5.364;2022-10-20T15:10:29;39.78;;;18.90;;
69594;SDS011;56800;52.142;5.364;2022-10-20T15:13:27;23.45;;;15.48;;
69594;SDS011;56800;52.142;5.364;2022-10-20T15:16:01;29.35;;;16.60;;
69594;SDS011;56800;52.142;5.364;2022-10-20T15:18:28;27.38;;;17.13;;
69594;SDS011;56800;52.142;5.364;2022-10-20T15:20:55;34.87;;;16.87;;
69594;SDS011;56800;52.142;5.364;2022-10-20T15:23:26;29.42;;;17.27;;
69594;SDS011;56800;52.142;5.364;2022-10-20T15:26:04;47.60;;;18.17;;
69594;SDS011;56800;52.142;5.364;2022-10-20T15:28:53;46.22;;;18.27;;
69594;SDS011;56800;52.142;5.364;2022-10-20T15:31:21;28.00;;;16.90;;
69594;SDS011;56800;52.142;5.364;2022-10-20T15:33:53;33.10;;;18.33;;
69594;SDS011;56800;52.142;5.364;2022-10-20T15:36:26;29.42;;;17.33;;
69594;SDS011;56800;52.142;5.364;2022-10-20T15:38:56;24.80;;;16.58;;
69594;SDS011;56800;52.142;5.364;2022-10-20T15:41:27;33.72;;;18.50;;
69594;SDS011;56800;52.142;5.364;2022-10-20T15:43:55;37.97;;;18.48;;
69594;SDS011;56800;52.142;5.364;2022-10-20T15:46:38;27.83;;;17.00;;
69594;SDS011;56800;52.142;5.364;2022-10-20T15:49:06;39.40;;;17.52;;
69594;SDS011;56800;52.142;5.364;2022-10-20T15:51:33;42.17;;;17.25;;
69594;SDS011;56800;52.142;5.364;2022-10-20T15:54:01;35.75;;;17.98;;
69594;SDS011;56800;52.142;5.364;2022-10-20T15:56:28;50.67;;;19.23;;
69594;SDS011;56800;52.142;5.364;2022-10-20T15:58:55;29.67;;;16.50;;
69594;SDS011;56800;52.142;5.364;2022-10-20T16:01:21;32.67;;;17.30;;
69594;SDS011;56800;52.142;5.364;2022-10-20T16:03:48;38.53;;;18.17;;
69594;SDS011;56800;52.142;5.364;2022-10-20T16:06:15;23.20;;;15.85;;
69594;SDS011;56800;52.142;5.364;2022-10-20T16:08:44;50.00;;;17.48;;
69594;SDS011;56800;52.142;5.364;2022-10-20T16:11:12;27.93;;;16.20;;
69594;SDS011;56800;52.142;5.364;2022-10-20T16:13:40;30.13;;;15.30;;
69594;SDS011;56800;52.142;5.364;2022-10-20T16:16:07;39.50;;;16.67;;
69594;SDS011;56800;52.142;5.364;2022-10-20T16:18:37;28.23;;;15.05;;
69594;SDS011;56800;52.142;5.364;2022-10-20T16:21:04;39.45;;;15.57;;
69594;SDS011;56800;52.142;5.364;2022-10-20T16:23:31;27.37;;;15.57;;
69594;SDS011;56800;52.142;5.364;2022-10-20T16:26:07;21.20;;;15.48;;
69594;SDS011;56800;52.142;5.364;2022-10-20T16:28:36;20.33;;;13.93;;
69594;SDS011;56800;52.142;5.364;2022-10-20T16:31:07;157.40;;;18.58;;
69594;SDS011;56800;52.142;5.364;2022-10-20T16:33:35;29.50;;;14.07;;
69594;SDS011;56800;52.142;5.364;2022-10-20T16:36:06;46.57;;;16.27;;
69594;SDS011;56800;52.142;5.364;2022-10-20T16:38:35;45.47;;;15.60;;
69594;SDS011;56800;52.142;5.364;2022-10-20T16:41:06;26.77;;;15.50;;
69594;SDS011;56800;52.142;5.364;2022-10-20T16:43:44;29.17;;;16.10;;
69594;SDS011;56800;52.142;5.364;2022-10-20T16:46:12;30.15;;;16.30;;
69594;SDS011;56800;52.142;5.364;2022-10-20T16:48:39;32.97;;;15.97;;
69594;SDS011;56800;52.142;5.364;2022-10-20T16:51:11;25.38;;;14.68;;
69594;SDS011;56800;52.142;5.364;2022-10-20T16:53:40;40.83;;;16.15;;
69594;SDS011;56800;52.142;5.364;2022-10-20T16:56:06;31.08;;;14.30;;
69594;SDS011;56800;52.142;5.364;2022-10-20T16:58:33;39.40;;;14.52;;
69594;SDS011;56800;52.142;5.364;2022-10-20T17:01:02;50.07;;;14.53;;
69594;SDS011;56800;52.142;5.364;2022-10-20T17:03:31;276.15;;;21.85;;
69594;SDS011;56800;52.142;5.364;2022-10-20T17:05:59;70.50;;;15.43;;
69594;SDS011;56800;52.142;5.364;2022-10-20T17:08:30;69.00;;;15.63;;
69594;SDS011;56800;52.142;5.364;2022-10-20T17:11:00;57.03;;;14.18;;
69594;SDS011;56800;52.142;5.364;2022-10-20T17:13:28;96.47;;;14.63;;
69594;SDS011;56800;52.142;5.364;2022-10-20T17:15:56;32.15;;;14.25;;
69594;SDS011;56800;52.142;5.364;2022-10-20T17:18:32;30.73;;;15.50;;
69594;SDS011;56800;52.142;5.364;2022-10-20T17:20:59;48.28;;;16.48;;